sensor_id;sensor_type;location;lat;lon;timestamp;P1;durP1;ratioP1;P2;durP2;ratioP2
2658;SDS011;1339;53.304;10.406;2023-07-13T17:22:37;2.10;;;1.90;;
2658;SDS011;1339;53.304;10.406;2023-07-13T17:25:04;2.10;;;1.60;;
2658;SDS011;1339;53.304;10.406;2023-07-13T17:27:37;2.40;;;2.20;;
2658;SDS011;1339;53.304;10.406;2023-07-13T17:30:05;2.30;;;1.63;;
2658;SDS011;1339;53.304;10.406;2023-07-13T17:32:34;1.80;;;1.70;;
2658;SDS011;1339;53.304;10.406;2023-07-13T17:35:04;3.10;;;2.10;;
2658;SDS011;1339;53.304;10.406;2023-07-13T17:37:38;2.17;;;1.97;;
2658;SDS011;1339;53.304;10.406;2023-07-13T17:40:08;2.57;;;2.17;;
2658;SDS011;1339;53.304;10.406;2023-07-13T17:42:40;3.00;;;2.30;;
2658;SDS011;1339;53.304;10.406;2023-07-13T17:45:07;4.33;;;1.90;;
2658;SDS011;1339;53.304;10.406;2023-07-13T17:47:36;3.30;;;2.43;;
2658;SDS011;1339;53.304;10.406;2023-07-13T17:50:08;1.80;;;1.70;;
2658;SDS011;1339;53.304;10.406;2023-07-13T17:52:37;2.83;;;2.10;;
2658;SDS011;1339;53.304;10.406;2023-07-13T17:55:08;2.53;;;2.30;;
2658;SDS011;1339;53.304;10.406;2023-07-13T17:57:39;3.30;;;2.97;;
2658;SDS011;1339;53.304;10.406;2023-07-13T18:00:06;2.63;;;2.43;;
2658;SDS011;1339;53.304;10.406;2023-07-13T18:02:52;3.30;;;1.57;;
2658;SDS011;1339;53.304;10.406;2023-07-13T18:05:19;1.70;;;1.43;;
2658;SDS011;1339;53.304;10.406;2023-07-13T18:07:50;2.00;;;1.60;;
2658;SDS011;1339;53.304;10.406;2023-07-13T18:10:18;1.77;;;1.50;;
2658;SDS011;1339;53.304;10.406;2023-07-13T18:12:48;2.53;;;1.60;;
2658;SDS011;1339;53.304;10.406;2023-07-13T18:15:16;2.03;;;1.40;;
2658;SDS011;1339;53.304;10.406;2023-07-13T18:17:46;2.43;;;1.33;;
2658;SDS011;1339;53.304;10.406;2023-07-13T18:20:14;1.73;;;1.40;;
2658;SDS011;1339;53.304;10.406;2023-07-13T18:22:42;2.93;;;1.97;;
2658;SDS011;1339;53.304;10.406;2023-07-13T18:25:15;4.33;;;1.67;;
2658;SDS011;1339;53.304;10.406;2023-07-13T18:27:42;2.90;;;2.03;;
2658;SDS011;1339;53.304;10.406;2023-07-13T18:30:10;2.00;;;1.90;;
2658;SDS011;1339;53.304;10.406;2023-07-13T18:32:38;3.07;;;2.00;;
2658;SDS011;1339;53.304;10.406;2023-07-13T18:35:10;2.20;;;1.97;;
2658;SDS011;1339;53.304;10.406;2023-07-13T18:37:38;1.93;;;1.73;;
2658;SDS011;1339;53.304;10.406;2023-07-13T18:40:08;1.97;;;1.77;;
2658;SDS011;1339;53.304;10.406;2023-07-13T18:42:41;2.37;;;1.80;;
2658;SDS011;1339;53.304;10.406;2023-07-13T18:45:08;6.60;;;2.20;;
2658;SDS011;1339;53.304;10.406;2023-07-13T18:47:37;2.30;;;2.10;;
2658;SDS011;1339;53.304;10.406;2023-07-13T18:50:08;2.37;;;2.10;;
2658;SDS011;1339;53.304;10.406;2023-07-13T18:52:38;2.27;;;2.07;;
2658;SDS011;1339;53.304;10.406;2023-07-13T18:55:11;1.80;;;1.70;;
2658;SDS011;1339;53.304;10.406;2023-07-13T18:57:38;2.37;;;1.70;;
2658;SDS011;1339;53.304;10.406;2023-07-13T19:00:07;1.73;;;1.63;;
2658;SDS011;1339;53.304;10.406;2023-07-13T19:02:36;1.67;;;1.57;;
2658;SDS011;1339;53.304;10.406;2023-07-13T19:05:05;2.93;;;1.60;;
2658;SDS011;1339;53.304;10.406;2023-07-13T19:07:32;1.97;;;1.77;;
2658;SDS011;1339;53.304;10.406;2023-07-13T19:09:59;1.80;;;1.70;;
2658;SDS011;1339;53.304;10.406;2023-07-13T19:12:26;2.83;;;1.87;;
2658;SDS011;1339;53.304;10.406;2023-07-13T19:14:56;2.83;;;2.00;;
2658;SDS011;1339;53.304;10.406;2023-07-13T19:17:24;2.30;;;1.87;;
2658;SDS011;1339;53.304;10.406;2023-07-13T19:19:51;1.63;;;1.53;;
2658;SDS011;1339;53.304;10.406;2023-07-13T19:22:19;2.87;;;1.23;;
2658;SDS011;1339;53.304;10.406;2023-07-13T19:24:46;1.60;;;1.33;;
2658;SDS011;1339;53.304;10.406;2023-07-13T19:27:14;2.10;;;2.00;;
2658;SDS011;1339;53.304;10.406;2023-07-13T19:29:41;2.30;;;1.40;;
2658;SDS011;1339;53.304;10.406;2023-07-13T19:32:08;2.20;;;2.00;;
2658;SDS011;1339;53.304;10.406;2023-07-13T19:34:36;1.90;;;1.70;;
2658;SDS011;1339;53.304;10.406;2023-07-13T19:37:15;3.10;;;1.60;;
2658;SDS011;1339;53.304;10.406;2023-07-13T19:39:44;3.40;;;2.00;;
2658;SDS011;1339;53.304;10.406;2023-07-13T19:42:11;1.70;;;1.43;;
2658;SDS011;1339;53.304;10.406;2023-07-13T19:44:39;2.30;;;2.00;;
2658;SDS011;1339;53.304;10.406;2023-07-13T19:47:09;3.40;;;2.40;;
2658;SDS011;1339;53.304;10.406;2023-07-13T19:49:38;3.70;;;2.00;;
2658;SDS011;1339;53.304;10.406;2023-07-13T19:52:08;2.50;;;2.30;;
2658;SDS011;1339;53.304;10.406;2023-07-13T19:54:35;4.40;;;2.57;;
2658;SDS011;1339;53.304;10.406;2023-07-13T19:57:02;2.10;;;1.90;;
2658;SDS011;1339;53.304;10.406;2023-07-13T19:59:31;1.83;;;1.73;;
2658;SDS011;1339;53.304;10.406;2023-07-13T20:01:58;2.47;;;2.27;;
2658;SDS011;1339;53.304;10.406;2023-07-13T20:04:27;2.17;;;2.07;;
2658;SDS011;1339;53.304;10.406;2023-07-13T20:06:56;2.50;;;2.30;;
2658;SDS011;1339;53.304;10.406;2023-07-13T20:09:23;2.30;;;2.10;;
2658;SDS011;1339;53.304;10.406;2023-07-13T20:11:51;2.60;;;2.40;;
2658;SDS011;1339;53.304;10.406;2023-07-13T20:14:19;3.40;;;2.07;;
2658;SDS011;1339;53.304;10.406;2023-07-13T20:16:47;2.10;;;1.90;;
2658;SDS011;1339;53.304;10.406;2023-07-13T20:19:15;2.10;;;1.90;;
2658;SDS011;1339;53.304;10.406;2023-07-13T20:21:42;3.10;;;1.80;;
2658;SDS011;1339;53.304;10.406;2023-07-13T20:24:13;1.93;;;1.83;;
2658;SDS011;1339;53.304;10.406;2023-07-13T20:26:40;4.50;;;2.43;;
2658;SDS011;1339;53.304;10.406;2023-07-13T20:29:07;2.87;;;2.67;;
2658;SDS011;1339;53.304;10.406;2023-07-13T20:31:34;2.87;;;2.63;;
2658;SDS011;1339;53.304;10.406;2023-07-13T20:34:02;3.10;;;2.73;;
2658;SDS011;1339;53.304;10.406;2023-07-13T20:36:29;2.33;;;2.13;;
2658;SDS011;1339;53.304;10.406;2023-07-13T20:38:56;3.60;;;2.40;;
2658;SDS011;1339;53.304;10.406;2023-07-13T20:41:24;2.53;;;2.33;;
2658;SDS011;1339;53.304;10.406;2023-07-13T20:43:52;2.80;;;2.60;;
2658;SDS011;1339;53.304;10.406;2023-07-13T20:46:19;2.57;;;2.03;;
2658;SDS011;1339;53.304;10.406;2023-07-13T20:48:46;2.50;;;2.30;;
2658;SDS011;1339;53.304;10.406;2023-07-13T20:51:15;3.57;;;3.10;;
2658;SDS011;1339;53.304;10.406;2023-07-13T20:53:42;4.00;;;3.20;;
2658;SDS011;1339;53.304;10.406;2023-07-13T20:56:10;2.33;;;2.17;;
2658;SDS011;1339;53.304;10.406;2023-07-13T20:58:39;3.57;;;2.77;;
2658;SDS011;1339;53.304;10.406;2023-07-13T21:01:09;2.93;;;2.60;;
2658;SDS011;1339;53.304;10.406;2023-07-13T21:03:40;2.90;;;2.70;;
2658;SDS011;1339;53.304;10.406;2023-07-13T21:06:11;3.13;;;2.83;;
2658;SDS011;1339;53.304;10.406;2023-07-13T21:08:39;2.77;;;2.57;;
2658;SDS011;1339;53.304;10.406;2023-07-13T21:11:06;2.80;;;2.60;;
2658;SDS011;1339;53.304;10.406;2023-07-13T21:13:33;1.80;;;1.70;;
2658;SDS011;1339;53.304;10.406;2023-07-13T21:16:04;2.17;;;1.97;;
2658;SDS011;1339;53.304;10.406;2023-07-13T21:18:36;2.87;;;2.60;;
2658;SDS011;1339;53.304;10.406;2023-07-13T21:21:03;3.03;;;2.80;;
2658;SDS011;1339;53.304;10.406;2023-07-13T21:23:31;2.90;;;2.40;;
2658;SDS011;1339;53.304;10.406;2023-07-13T21:25:58;3.00;;;2.47;;
2658;SDS011;1339;53.304;10.406;2023-07-13T21:28:26;2.70;;;2.50;;
2658;SDS011;1339;53.304;10.406;2023-07-13T21:30:54;2.60;;;2.40;;
2658;SDS011;1339;53.304;10.406;2023-07-13T21:33:25;3.30;;;2.13;;
2658;SDS011;1339;53.304;10.406;2023-07-13T21:35:52;4.40;;;2.90;;
2658;SDS011;1339;53.304;10.406;2023-07-13T21:38:20;4.90;;;2.50;;
2658;SDS011;1339;53.304;10.406;2023-07-13T21:40:48;3.70;;;2.93;;
2658;SDS011;1339;53.304;10.406;2023-07-13T21:43:16;2.40;;;2.20;;
2658;SDS011;1339;53.304;10.406;2023-07-13T21:45:43;2.67;;;2.47;;
2658;SDS011;1339;53.304;10.406;2023-07-13T21:48:10;2.80;;;2.60;;
2658;SDS011;1339;53.304;10.406;2023-07-13T21:50:39;4.50;;;2.37;;
2658;SDS011;1339;53.304;10.406;2023-07-13T21:53:13;3.93;;;3.63;;
2658;SDS011;1339;53.304;10.406;2023-07-13T21:55:40;3.20;;;2.90;;
2658;SDS011;1339;53.304;10.406;2023-07-13T21:58:12;3.50;;;3.20;;
2658;SDS011;1339;53.304;10.406;2023-07-13T22:00:39;3.00;;;2.73;;
2658;SDS011;1339;53.304;10.406;2023-07-13T22:03:12;3.20;;;3.00;;
2658;SDS011;1339;53.304;10.406;2023-07-13T22:05:44;4.67;;;3.10;;
2658;SDS011;1339;53.304;10.406;2023-07-13T22:08:12;3.30;;;3.10;;
2658;SDS011;1339;53.304;10.406;2023-07-13T22:10:39;3.87;;;3.10;;
2658;SDS011;1339;53.304;10.406;2023-07-13T22:13:06;3.10;;;2.80;;
2658;SDS011;1339;53.304;10.406;2023-07-13T22:15:33;2.73;;;2.53;;
2658;SDS011;1339;53.304;10.406;2023-07-13T22:18:02;3.60;;;3.30;;
2658;SDS011;1339;53.304;10.406;2023-07-13T22:20:29;4.70;;;4.40;;
2658;SDS011;1339;53.304;10.406;2023-07-13T22:22:57;3.30;;;3.00;;
2658;SDS011;1339;53.304;10.406;2023-07-13T22:25:25;4.63;;;2.97;;
2658;SDS011;1339;53.304;10.406;2023-07-13T22:27:52;3.80;;;3.50;;
2658;SDS011;1339;53.304;10.406;2023-07-13T22:30:19;3.20;;;2.63;;
2658;SDS011;1339;53.304;10.406;2023-07-13T22:32:46;3.13;;;2.93;;
2658;SDS011;1339;53.304;10.406;2023-07-13T22:35:13;5.10;;;3.00;;
2658;SDS011;1339;53.304;10.406;2023-07-13T22:37:41;3.43;;;3.00;;
2658;SDS011;1339;53.304;10.406;2023-07-13T22:40:11;3.30;;;2.83;;
2658;SDS011;1339;53.304;10.406;2023-07-13T22:42:41;2.83;;;2.63;;
2658;SDS011;1339;53.304;10.406;2023-07-13T22:45:09;2.70;;;2.47;;
2658;SDS011;1339;53.304;10.406;2023-07-13T22:47:37;3.07;;;2.87;;
2658;SDS011;1339;53.304;10.406;2023-07-13T22:50:11;3.07;;;2.87;;
2658;SDS011;1339;53.304;10.406;2023-07-13T22:52:39;5.73;;;3.40;;
